Johnson County (6A4)
Mountain City, TN
Field Elevation: 2240
Lat: 36°25.07N  Long: 81°49.51W
CTAF/Unicom Freq: 122.7000
   
    
Weather Advisories
2019-12-10   16:58 Z
Altimeter 30.03" Hg
Wind 280° @ 9 KT
Gusts 14 KT
Visibility 5 SM
Ceiling FEW010 BKN017 BKN037 OVC045
Temperature 11° C (52° F)
Dewpoint 9° C (48° F)
Relative Humidity 84%
Density Altitude --
Condensation Altitude 3,400 feet
Wind and Runways
Indicated Runway = 24
Headwind = 7 kt
Crosswind = 6 kt
History
 
 
 
More Info
NOAA Forecast
 
 
About Us
Belfort Instrument
 
 
FAA Disclaimer: The data displayed is for advisory purposes only and is not to be used for flight planning or operations. For official data, please call (not available) to hear the current automated AWOS voice message.
  METAR 6A4 101658Z AUTO 28009G14KT 5 SM FEW010 BKN017 BKN037 OVC045 11/09 A3003